Ana Sayfa
METAR-TAF:

METAR-TAF

Havaalanları :

Penang Uluslararası Havalimanı

Penang, Malezya

Enlem: 05-18N, Boylam: 100-16E, yükseklik: 3 m

Güncel hava durumu gözlemi

Rapor saat 05:30 UTC de 32 dakika önce yapıldı.
Rüzgar güney/güneybatıdan 9 kt, güney ve batı/güneybatı arasında değişken
Sıcaklık 31°C
Nem 63%
Basınç 1010 hPa
Görüş mesafesi 10 km veya daha fazla
2000 ft yükseklikte az bulutlu

METAR: WMKP 120530Z 21009KT 170V240 9999 FEW020 31/23 Q1010 NOSIG

Saat: 14:02 (06:02 UTC)

Tahmin

Rapor saat 05:00 UTC de 1 saat ve 2 dakika önce yapıldı.
Ayın 12'si saat 06 UTC'den ayın 13'si saat 06 UTC'ye kadar geçerli Tahmin
Rüzgar batı/güneybatıdan 10 kt
Görüş mesafesi 10 km veya daha fazla
2200 ft yükseklikte az bulutlu
Dönüşüyor
ayın 12'si saat 11 UTC'den ayın 12'si saat 13 UTC'ye kadar
Rüzgar kuzey/kuzeydoğudan 5 kt
Görüş mesafesi: 9000 m
2500 ft yükseklikte az bulutlu

TAF: WMKP 120500Z 1206/1306 24010KT 9999 FEW022 BECMG 1211/1213 03005KT 9000 FEW025

4.000'den fazla havaalanı için hava durumu gözlemleri ve tahminleri (METAR ve TAF raporları).

Kullanılabilir istasyonlar harita üzerinde sarı ve kırmızı noktalarla gösterilir.

İstasyonun adını görmek için fareyi noktanın üzerinde gezdirin.

Sonrasında hava gözlem ve tahminlerini görmek için tıklayın.

Haritayı değiştirmek için: yaklaştırmak için siyah artı işaretli yeşil düğmeye ve uzaklaştırmak için de eksi işaretli düğmeye hızla tıklayın; bitişik haritalar için yeşil okları kullanın.


METAR-TAF: